createdAt,value
2018-08-17T00:00:39.083Z,4.85
2018-08-17T00:03:08.018Z,5.55
2018-08-17T00:05:36.867Z,5.42
2018-08-17T00:08:06.184Z,4.80
2018-08-17T00:10:35.023Z,4.33
2018-08-17T00:13:03.858Z,4.70
2018-08-17T00:15:33.068Z,4.05
2018-08-17T00:18:01.883Z,4.30
2018-08-17T00:20:33.178Z,4.50
2018-08-17T00:23:02.422Z,4.40
2018-08-17T00:25:31.651Z,3.40
2018-08-17T00:28:00.512Z,3.95
2018-08-17T00:30:29.686Z,4.15
2018-08-17T00:32:58.515Z,4.55
2018-08-17T00:35:27.374Z,4.58
2018-08-17T00:37:56.576Z,4.05
2018-08-17T00:40:25.445Z,3.90
2018-08-17T00:42:54.276Z,4.47
2018-08-17T00:45:23.717Z,4.40
2018-08-17T00:47:52.590Z,3.67
2018-08-17T00:50:21.570Z,4.55
2018-08-17T00:52:50.744Z,3.70
2018-08-17T00:55:19.605Z,3.70
2018-08-17T00:57:48.423Z,3.72
2018-08-17T01:00:18.584Z,3.90
2018-08-17T01:02:47.334Z,4.37
2018-08-17T01:05:16.241Z,4.50
2018-08-17T01:07:45.415Z,4.22
2018-08-17T01:10:14.127Z,5.08
2018-08-17T01:12:42.877Z,5.90
2018-08-17T01:15:11.970Z,5.97
2018-08-17T01:17:40.935Z,6.60
2018-08-17T01:20:11.423Z,6.85
2018-08-17T01:22:40.822Z,7.10
2018-08-17T01:25:09.591Z,6.50
2018-08-17T01:27:38.274Z,6.92
2018-08-17T01:30:09.253Z,6.92
2018-08-17T01:32:38.418Z,6.40
2018-08-17T01:35:07.506Z,6.97
2018-08-17T01:37:36.654Z,6.42
2018-08-17T01:40:06.231Z,6.65
2018-08-17T01:42:34.991Z,7.03
2018-08-17T01:45:03.851Z,7.03
2018-08-17T01:47:32.610Z,6.50
2018-08-17T01:50:01.295Z,6.10
2018-08-17T01:52:30.319Z,6.70
2018-08-17T01:54:58.999Z,6.83
2018-08-17T01:57:27.707Z,7.05
2018-08-17T01:59:56.479Z,6.83
2018-08-17T02:02:25.333Z,7.00
2018-08-17T02:04:54.020Z,6.75
2018-08-17T02:07:23.023Z,6.97
2018-08-17T02:09:51.843Z,6.55
2018-08-17T02:12:20.569Z,6.12
2018-08-17T02:14:49.552Z,6.72
2018-08-17T02:17:18.363Z,6.28
2018-08-17T02:19:47.030Z,6.95
2018-08-17T02:22:15.788Z,6.60
2018-08-17T02:24:44.603Z,6.53
2018-08-17T02:27:13.329Z,6.78
2018-08-17T02:29:42.074Z,6.28
2018-08-17T02:32:10.759Z,6.85
2018-08-17T02:34:39.467Z,6.95
2018-08-17T02:37:08.303Z,7.00
2018-08-17T02:39:37.078Z,7.20
2018-08-17T02:42:06.171Z,6.35
2018-08-17T02:44:35.292Z,6.90
2018-08-17T02:47:04.072Z,6.97
2018-08-17T02:49:32.957Z,6.35
2018-08-17T02:52:02.584Z,7.20
2018-08-17T02:54:31.199Z,6.97
2018-08-17T02:56:59.963Z,7.35
2018-08-17T02:59:29.079Z,7.37
2018-08-17T03:01:57.853Z,5.70
2018-08-17T03:04:27.411Z,6.30
2018-08-17T03:06:56.238Z,6.22
2018-08-17T03:09:25.011Z,6.40
2018-08-17T03:12:00.056Z,6.15
2018-08-17T03:14:28.883Z,6.75
2018-08-17T03:16:57.571Z,6.33
2018-08-17T03:19:26.630Z,6.17
2018-08-17T03:21:55.463Z,6.72
2018-08-17T03:24:24.223Z,6.80
2018-08-17T03:26:53.019Z,6.78
2018-08-17T03:29:21.740Z,7.33
2018-08-17T03:31:50.565Z,6.15
2018-08-17T03:34:19.600Z,6.87
2018-08-17T03:36:48.404Z,6.25
2018-08-17T03:39:17.245Z,7.35
2018-08-17T03:41:46.351Z,7.28
2018-08-17T03:44:15.002Z,6.95
2018-08-17T03:46:43.770Z,6.70
2018-08-17T03:49:12.696Z,7.05
2018-08-17T03:51:41.376Z,7.58
2018-08-17T03:54:10.064Z,7.70
2018-08-17T03:56:39.090Z,7.40
2018-08-17T03:59:08.127Z,7.50
2018-08-17T04:01:36.815Z,7.95
2018-08-17T04:04:06.080Z,8.20
2018-08-17T04:06:34.779Z,8.63
2018-08-17T04:09:05.470Z,8.38
2018-08-17T04:11:34.230Z,7.85
2018-08-17T04:14:02.960Z,8.33
2018-08-17T04:16:31.812Z,7.87
2018-08-17T04:19:01.427Z,7.60
2018-08-17T04:21:31.174Z,8.23
2018-08-17T04:24:00.011Z,7.08
2018-08-17T04:26:28.852Z,7.45
2018-08-17T04:28:57.728Z,8.30
2018-08-17T04:31:26.438Z,8.30
2018-08-17T04:33:55.772Z,7.70
2018-08-17T04:36:24.444Z,9.28
2018-08-17T04:38:53.247Z,8.50
2018-08-17T04:41:22.349Z,9.03
2018-08-17T04:43:52.405Z,10.13
2018-08-17T04:46:21.230Z,9.45
2018-08-17T04:48:50.339Z,7.53
2018-08-17T04:51:19.217Z,9.15
2018-08-17T04:53:47.896Z,8.55
2018-08-17T04:56:16.689Z,6.87
2018-08-17T04:58:45.378Z,6.33
2018-08-17T05:01:14.372Z,8.58
2018-08-17T05:03:43.480Z,8.13
2018-08-17T05:06:12.460Z,8.53
2018-08-17T05:08:41.256Z,8.53
2018-08-17T05:11:10.606Z,7.15
2018-08-17T05:13:39.443Z,7.70
2018-08-17T05:16:08.133Z,7.00
2018-08-17T05:18:37.750Z,8.30
2018-08-17T05:21:06.535Z,8.65
2018-08-17T05:23:35.250Z,8.88
2018-08-17T05:26:04.639Z,8.28
2018-08-17T05:28:33.254Z,8.18
2018-08-17T05:31:02.042Z,8.13
2018-08-17T05:33:31.430Z,8.33
2018-08-17T05:36:00.278Z,7.50
2018-08-17T05:38:28.981Z,7.75
2018-08-17T05:40:58.383Z,7.85
2018-08-17T05:43:27.162Z,8.13
2018-08-17T05:45:56.035Z,6.87
2018-08-17T05:48:25.292Z,6.75
2018-08-17T05:50:54.054Z,6.10
2018-08-17T05:53:22.828Z,5.72
2018-08-17T05:55:51.615Z,5.95
2018-08-17T05:58:20.463Z,6.70
2018-08-17T06:00:49.191Z,6.22
2018-08-17T06:03:18.230Z,6.47
2018-08-17T06:05:46.943Z,5.65
2018-08-17T06:08:15.786Z,6.90
2018-08-17T06:10:44.684Z,7.55
2018-08-17T06:13:13.394Z,6.35
2018-08-17T06:15:42.163Z,6.62
2018-08-17T06:18:11.528Z,6.08
2018-08-17T06:20:40.388Z,6.47
2018-08-17T06:23:09.220Z,5.50
2018-08-17T06:25:38.358Z,5.85
2018-08-17T06:28:07.369Z,5.83
2018-08-17T06:30:36.226Z,4.78
2018-08-17T06:33:05.207Z,4.00
2018-08-17T06:35:33.920Z,3.90
2018-08-17T06:38:02.908Z,3.15
2018-08-17T06:40:38.066Z,2.67
2018-08-17T06:43:06.929Z,2.77
2018-08-17T06:45:35.710Z,2.65
2018-08-17T06:48:04.512Z,1.80
2018-08-17T06:50:33.349Z,1.62
2018-08-17T06:53:02.197Z,2.40
2018-08-17T06:55:31.379Z,1.77
2018-08-17T06:58:00.208Z,2.08
2018-08-17T07:00:28.907Z,2.55
2018-08-17T07:02:57.975Z,2.95
2018-08-17T07:05:26.814Z,1.70
2018-08-17T07:07:55.576Z,2.80
2018-08-17T07:10:24.950Z,2.25
2018-08-17T07:12:53.845Z,2.20
2018-08-17T07:15:22.738Z,1.30
2018-08-17T07:17:52.103Z,2.47
2018-08-17T07:20:20.820Z,2.40
2018-08-17T07:22:49.522Z,2.00
2018-08-17T07:25:18.244Z,1.82
2018-08-17T07:27:47.054Z,1.82
2018-08-17T07:30:15.822Z,2.10
2018-08-17T07:32:44.895Z,1.50
2018-08-17T07:35:13.579Z,1.82
2018-08-17T07:37:42.213Z,1.72
2018-08-17T07:40:11.466Z,2.35
2018-08-17T07:42:40.343Z,1.55
2018-08-17T07:45:09.245Z,1.70
2018-08-17T07:47:38.446Z,1.30
2018-08-17T07:50:07.434Z,1.82
2018-08-17T07:52:36.210Z,1.30
2018-08-17T07:55:05.543Z,1.50
2018-08-17T07:57:34.208Z,1.40
2018-08-17T08:00:02.994Z,1.85
2018-08-17T08:02:32.114Z,1.40
2018-08-17T08:05:00.829Z,1.40
2018-08-17T08:07:29.671Z,1.25
2018-08-17T08:09:58.885Z,1.40
2018-08-17T08:12:27.738Z,1.50
2018-08-17T08:14:56.407Z,1.50
2018-08-17T08:17:25.463Z,1.42
2018-08-17T08:20:05.335Z,1.52
2018-08-17T08:22:34.618Z,1.55
2018-08-17T08:25:03.494Z,1.72
2018-08-17T08:27:32.336Z,2.05
2018-08-17T08:30:01.249Z,1.67
2018-08-17T08:32:30.104Z,1.50
2018-08-17T08:34:58.907Z,2.20
2018-08-17T08:37:28.071Z,1.40
2018-08-17T08:39:57.915Z,1.72
2018-08-17T08:42:26.763Z,1.65
2018-08-17T08:44:55.650Z,1.85
2018-08-17T08:47:24.785Z,1.85
2018-08-17T08:49:53.639Z,2.10
2018-08-17T08:52:22.330Z,2.05
2018-08-17T08:54:51.334Z,2.10
2018-08-17T08:57:20.214Z,2.62
2018-08-17T08:59:49.236Z,1.92
2018-08-17T09:02:18.222Z,1.90
2018-08-17T09:04:47.109Z,1.80
2018-08-17T09:07:15.927Z,1.85
2018-08-17T09:09:45.186Z,1.80
2018-08-17T09:12:14.003Z,2.37
2018-08-17T09:14:42.754Z,2.20
2018-08-17T09:17:11.883Z,2.27
2018-08-17T09:19:40.585Z,2.00
2018-08-17T09:22:09.230Z,1.75
2018-08-17T09:24:38.344Z,2.35
2018-08-17T09:27:07.417Z,1.87
2018-08-17T09:29:36.135Z,2.12
2018-08-17T09:32:05.510Z,2.52
2018-08-17T09:34:34.195Z,2.20
2018-08-17T09:37:02.923Z,2.20
2018-08-17T09:39:32.017Z,2.35
2018-08-17T09:42:00.827Z,2.47
2018-08-17T09:44:29.586Z,2.35
2018-08-17T09:46:58.352Z,2.40
2018-08-17T09:49:27.094Z,2.25
2018-08-17T09:51:55.787Z,2.02
2018-08-17T09:54:24.936Z,1.70
2018-08-17T09:56:53.646Z,1.65
2018-08-17T09:59:22.409Z,1.57
2018-08-17T10:01:56.644Z,1.55
2018-08-17T10:04:30.533Z,1.30
2018-08-17T10:07:04.858Z,1.40
2018-08-17T10:09:38.756Z,1.50
2018-08-17T10:12:08.321Z,1.72
2018-08-17T10:14:37.038Z,1.57
2018-08-17T10:17:05.719Z,1.90
2018-08-17T10:19:34.545Z,2.02
2018-08-17T10:22:03.333Z,1.98
2018-08-17T10:24:32.008Z,1.72
2018-08-17T10:27:00.723Z,1.05
2018-08-17T10:29:29.411Z,0.60
2018-08-17T10:31:58.172Z,0.70
2018-08-17T10:34:27.291Z,0.80
2018-08-17T10:36:56.127Z,0.80
2018-08-17T10:39:24.814Z,0.70
2018-08-17T10:41:54.181Z,0.60
2018-08-17T10:44:23.064Z,0.70
2018-08-17T10:46:51.781Z,0.80
2018-08-17T10:49:20.861Z,0.62
2018-08-17T10:51:49.724Z,0.50
2018-08-17T10:54:18.409Z,0.88
2018-08-17T10:56:47.049Z,0.70
2018-08-17T10:59:15.787Z,0.78
2018-08-17T11:01:45.478Z,0.70
2018-08-17T11:04:14.669Z,1.00
2018-08-17T11:06:43.417Z,1.10
2018-08-17T11:09:12.486Z,1.10
2018-08-17T11:11:41.645Z,1.40
2018-08-17T11:14:10.411Z,1.87
2018-08-17T11:16:39.096Z,1.20
2018-08-17T11:19:08.272Z,0.98
2018-08-17T11:21:37.110Z,1.05
2018-08-17T11:24:05.836Z,2.00
2018-08-17T11:26:34.955Z,0.88
2018-08-17T11:29:03.680Z,1.12
2018-08-17T11:31:32.444Z,1.27
2018-08-17T11:34:01.324Z,1.10
2018-08-17T11:36:30.019Z,1.30
2018-08-17T11:38:58.899Z,1.50
2018-08-17T11:41:27.944Z,1.20
2018-08-17T11:44:03.098Z,1.20
2018-08-17T11:46:33.039Z,2.50
2018-08-17T11:49:01.893Z,2.35
2018-08-17T11:51:30.710Z,1.65
2018-08-17T11:53:59.454Z,2.12
2018-08-17T11:56:28.128Z,1.82
2018-08-17T11:58:56.898Z,1.12
2018-08-17T12:01:28.852Z,1.82
2018-08-17T12:03:57.623Z,1.60
2018-08-17T12:06:26.643Z,1.77
2018-08-17T12:08:55.712Z,1.92
2018-08-17T12:11:24.474Z,1.98
2018-08-17T12:13:53.152Z,1.87
2018-08-17T12:16:22.299Z,2.67
2018-08-17T12:18:51.020Z,3.95
2018-08-17T12:21:19.722Z,4.37
2018-08-17T12:23:48.850Z,3.25
2018-08-17T12:26:17.474Z,3.77
2018-08-17T12:28:46.144Z,3.00
2018-08-17T12:31:15.240Z,2.30
2018-08-17T12:33:43.988Z,4.55
2018-08-17T12:36:12.758Z,3.22
2018-08-17T12:38:41.939Z,3.33
2018-08-17T12:41:10.602Z,3.02
2018-08-17T12:43:40.101Z,2.25
2018-08-17T12:46:09.219Z,3.17
2018-08-17T12:48:37.911Z,2.70
2018-08-17T12:51:07.906Z,3.00
2018-08-17T12:53:36.838Z,3.80
2018-08-17T12:56:05.696Z,3.10
2018-08-17T12:58:34.403Z,3.12
2018-08-17T13:01:03.698Z,3.00
2018-08-17T13:03:32.478Z,2.98
2018-08-17T13:06:01.306Z,3.92
2018-08-17T13:08:30.460Z,3.65
2018-08-17T13:10:59.744Z,3.10
2018-08-17T13:13:28.417Z,1.82
2018-08-17T13:16:02.666Z,2.25
2018-08-17T13:18:34.636Z,1.60
2018-08-17T13:21:03.560Z,1.20
2018-08-17T13:23:32.351Z,1.30
2018-08-17T13:26:01.201Z,1.15
2018-08-17T13:28:30.329Z,0.80
2018-08-17T13:30:59.091Z,1.20
2018-08-17T13:33:27.880Z,1.30
2018-08-17T13:35:56.669Z,1.92
2018-08-17T13:38:25.564Z,1.05
2018-08-17T13:40:54.354Z,1.10
2018-08-17T13:43:23.656Z,1.30
2018-08-17T13:45:52.443Z,1.15
2018-08-17T13:48:21.337Z,1.80
2018-08-17T13:50:50.532Z,1.25
2018-08-17T13:53:19.303Z,2.00
2018-08-17T13:55:47.971Z,1.70
2018-08-17T13:58:17.227Z,1.55
2018-08-17T14:00:46.007Z,1.85
2018-08-17T14:03:14.888Z,1.62
2018-08-17T14:05:43.808Z,2.35
2018-08-17T14:08:12.540Z,1.47
2018-08-17T14:10:41.365Z,1.70
2018-08-17T14:13:10.474Z,1.67
2018-08-17T14:15:39.433Z,1.30
2018-08-17T14:18:08.199Z,0.98
2018-08-17T14:20:37.564Z,0.80
2018-08-17T14:23:06.342Z,0.85
2018-08-17T14:25:35.116Z,0.60
2018-08-17T14:28:04.126Z,0.70
2018-08-17T14:30:32.755Z,0.50
2018-08-17T14:33:01.704Z,0.80
2018-08-17T14:35:30.465Z,0.50
2018-08-17T14:37:59.239Z,0.62
2018-08-17T14:40:28.013Z,0.70
2018-08-17T14:42:56.839Z,0.50
2018-08-17T14:45:25.526Z,0.60
2018-08-17T14:47:54.331Z,0.88
2018-08-17T14:50:23.554Z,0.60
2018-08-17T14:52:52.530Z,0.70
2018-08-17T14:55:21.424Z,0.95
2018-08-17T14:57:50.418Z,0.85
2018-08-17T15:00:19.268Z,0.90
2018-08-17T15:02:48.008Z,1.12
2018-08-17T15:05:17.196Z,0.90
2018-08-17T15:07:45.897Z,0.90
2018-08-17T15:10:15.279Z,1.00
2018-08-17T15:12:44.438Z,0.70
2018-08-17T15:15:13.778Z,0.70
2018-08-17T15:17:42.534Z,0.50
2018-08-17T15:20:14.251Z,0.60
2018-08-17T15:22:43.114Z,0.80
2018-08-17T15:25:11.911Z,0.85
2018-08-17T15:27:40.694Z,0.80
2018-08-17T15:30:10.896Z,0.60
2018-08-17T15:32:40.277Z,0.60
2018-08-17T15:35:09.870Z,0.90
2018-08-17T15:37:39.182Z,0.93
2018-08-17T15:40:10.602Z,0.62
2018-08-17T15:42:39.559Z,0.70
2018-08-17T15:45:08.811Z,0.78
2018-08-17T15:47:38.295Z,0.75
2018-08-17T15:50:14.442Z,0.90
2018-08-17T15:52:43.867Z,0.70
2018-08-17T15:55:12.848Z,1.00
2018-08-17T15:57:41.819Z,0.95
2018-08-17T16:00:16.927Z,0.90
2018-08-17T16:02:45.905Z,0.80
2018-08-17T16:05:14.768Z,0.78
2018-08-17T16:07:43.882Z,1.22
2018-08-17T16:10:14.448Z,1.30
2018-08-17T16:12:43.190Z,0.95
2018-08-17T16:15:12.398Z,0.90
2018-08-17T16:17:41.262Z,1.17
2018-08-17T16:20:11.723Z,1.00
2018-08-17T16:22:41.526Z,0.80
2018-08-17T16:25:11.247Z,1.00
2018-08-17T16:27:40.470Z,0.72
2018-08-17T16:30:11.307Z,1.00
2018-08-17T16:32:40.339Z,1.12
2018-08-17T16:35:09.375Z,0.80
2018-08-17T16:37:46.354Z,2.12
2018-08-17T16:40:15.228Z,3.22
2018-08-17T16:42:43.912Z,2.15
2018-08-17T16:45:13.122Z,1.30
2018-08-17T16:47:41.853Z,1.40
2018-08-17T16:50:10.694Z,1.12
2018-08-17T16:52:39.829Z,0.88
2018-08-17T16:55:09.714Z,0.60
2018-08-17T16:57:39.018Z,1.17
2018-08-17T17:00:09.759Z,0.90
2018-08-17T17:02:38.638Z,1.32
2018-08-17T17:05:08.039Z,0.98
2018-08-17T17:07:37.155Z,1.07
2018-08-17T17:10:07.982Z,0.82
2018-08-17T17:12:36.819Z,1.30
2018-08-17T17:15:14.572Z,1.52
2018-08-17T17:17:45.395Z,1.85
2018-08-17T17:20:14.089Z,1.90
2018-08-17T17:22:43.170Z,2.17
2018-08-17T17:25:17.010Z,2.65
2018-08-17T17:27:46.318Z,3.10
2018-08-17T17:30:17.141Z,3.00
2018-08-17T17:32:45.931Z,3.05
2018-08-17T17:35:14.782Z,3.83
2018-08-17T17:37:43.612Z,3.35
2018-08-17T17:40:12.393Z,4.70
2018-08-17T17:42:41.434Z,4.85
2018-08-17T17:45:10.132Z,4.60
2018-08-17T17:47:38.836Z,4.92
2018-08-17T17:50:07.965Z,4.83
2018-08-17T17:52:36.634Z,4.83
2018-08-17T17:55:05.450Z,5.12
2018-08-17T17:57:34.555Z,3.92
2018-08-17T18:00:03.427Z,4.62
2018-08-17T18:02:32.195Z,2.77
2018-08-17T18:05:00.886Z,3.67
2018-08-17T18:07:34.391Z,5.62
2018-08-17T18:10:03.760Z,7.33
2018-08-17T18:12:32.602Z,5.97
2018-08-17T18:15:01.351Z,5.60
2018-08-17T18:17:30.502Z,6.78
2018-08-17T18:19:59.284Z,7.00
2018-08-17T18:22:31.494Z,4.83
2018-08-17T18:25:05.272Z,5.50
2018-08-17T18:27:34.043Z,5.15
2018-08-17T18:30:02.922Z,6.10
2018-08-17T18:32:31.720Z,3.30
2018-08-17T18:35:00.871Z,3.60
2018-08-17T18:37:29.609Z,3.12
2018-08-17T18:39:58.285Z,4.22
2018-08-17T18:42:27.035Z,6.45
2018-08-17T18:44:55.879Z,5.35
2018-08-17T18:47:24.720Z,6.60
2018-08-17T18:49:53.878Z,7.10
2018-08-17T18:52:22.649Z,8.03
2018-08-17T18:54:51.555Z,8.15
2018-08-17T18:57:20.443Z,7.67
2018-08-17T18:59:49.220Z,7.58
2018-08-17T19:02:17.924Z,8.33
2018-08-17T19:04:47.127Z,8.65
2018-08-17T19:07:16.794Z,10.25
2018-08-17T19:09:46.020Z,9.15
2018-08-17T19:12:15.139Z,10.25
2018-08-17T19:14:49.827Z,9.43
2018-08-17T19:17:23.974Z,8.48
2018-08-17T19:19:53.511Z,9.30
2018-08-17T19:22:22.569Z,9.08
2018-08-17T19:24:53.195Z,9.80
2018-08-17T19:27:27.808Z,9.65
2018-08-17T19:29:57.853Z,13.60
2018-08-17T19:32:26.860Z,8.70
2018-08-17T19:34:55.992Z,7.78
2018-08-17T19:37:25.085Z,8.85
2018-08-17T19:39:54.214Z,9.80
2018-08-17T19:42:23.095Z,8.60
2018-08-17T19:44:52.141Z,8.15
2018-08-17T19:47:21.099Z,8.68
2018-08-17T19:49:50.012Z,8.88
2018-08-17T19:52:19.222Z,8.83
2018-08-17T19:54:48.394Z,8.05
2018-08-17T19:57:17.280Z,8.08
2018-08-17T19:59:46.606Z,8.20
2018-08-17T20:02:15.404Z,8.70
2018-08-17T20:04:44.223Z,8.70
2018-08-17T20:07:13.806Z,8.15
2018-08-17T20:09:41.594Z,8.05
2018-08-17T20:12:10.802Z,7.55
2018-08-17T20:14:39.887Z,7.42
2018-08-17T20:17:08.919Z,7.47
2018-08-17T20:19:52.191Z,7.22
2018-08-17T20:22:23.187Z,6.80
2018-08-17T20:24:51.979Z,7.05
2018-08-17T20:27:21.610Z,6.35
2018-08-17T20:29:50.478Z,6.80
2018-08-17T20:32:19.499Z,6.67
2018-08-17T20:34:49.779Z,6.50
2018-08-17T20:37:19.239Z,6.47
2018-08-17T20:39:48.267Z,6.67
2018-08-17T20:42:17.096Z,7.17
2018-08-17T20:44:46.295Z,6.97
2018-08-17T20:47:16.416Z,7.40
2018-08-17T20:49:45.679Z,7.37
2018-08-17T20:52:14.615Z,7.30
2018-08-17T20:54:44.107Z,8.60
2018-08-17T20:57:13.602Z,7.80
2018-08-17T20:59:42.780Z,7.72
2018-08-17T21:02:13.687Z,7.15
2018-08-17T21:04:43.587Z,7.40
2018-08-17T21:07:12.881Z,7.67
2018-08-17T21:09:42.159Z,8.38
2018-08-17T21:12:11.418Z,7.58
2018-08-17T21:14:41.706Z,7.12
2018-08-17T21:17:10.501Z,9.05
2018-08-17T21:19:40.479Z,9.50
2018-08-17T21:22:10.938Z,11.57
2018-08-17T21:24:40.146Z,10.53
2018-08-17T21:27:09.275Z,11.18
2018-08-17T21:29:38.249Z,10.15
2018-08-17T21:32:07.229Z,11.28
2018-08-17T21:34:36.552Z,11.03
2018-08-17T21:37:05.730Z,11.80
2018-08-17T21:39:34.367Z,12.37
2018-08-17T21:42:03.179Z,11.68
2018-08-17T21:44:32.198Z,10.53
2018-08-17T21:47:04.702Z,10.60
2018-08-17T21:49:34.426Z,10.25
2018-08-17T21:52:06.734Z,11.25
2018-08-17T21:54:35.897Z,10.75
2018-08-17T21:57:05.294Z,10.25
2018-08-17T21:59:38.310Z,10.05
2018-08-17T22:02:11.387Z,10.13
2018-08-17T22:04:40.380Z,10.40
2018-08-17T22:07:13.289Z,9.63
2018-08-17T22:09:43.506Z,8.43
2018-08-17T22:12:13.399Z,8.75
2018-08-17T22:14:42.402Z,9.00
2018-08-17T22:17:22.243Z,8.80
2018-08-17T22:19:50.979Z,9.95
2018-08-17T22:22:21.435Z,9.33
2018-08-17T22:24:51.874Z,9.18
2018-08-17T22:27:21.494Z,9.70
2018-08-17T22:29:51.834Z,9.45
2018-08-17T22:32:21.115Z,9.88
2018-08-17T22:34:50.931Z,9.93
2018-08-17T22:37:20.043Z,9.98
2018-08-17T22:39:49.803Z,10.30
2018-08-17T22:42:19.927Z,10.88
2018-08-17T22:44:49.458Z,10.50
2018-08-17T22:47:21.510Z,11.03
2018-08-17T22:49:51.502Z,10.30
2018-08-17T22:52:20.694Z,11.10
2018-08-17T22:54:54.854Z,11.38
2018-08-17T22:57:24.002Z,10.82
2018-08-17T23:00:19.724Z,11.18
2018-08-17T23:02:49.652Z,11.15
2018-08-17T23:05:21.589Z,11.10
2018-08-17T23:07:50.642Z,10.78
2018-08-17T23:10:22.536Z,10.80
2018-08-17T23:12:52.560Z,10.85
2018-08-17T23:15:22.024Z,10.43
2018-08-17T23:17:56.284Z,11.40
2018-08-17T23:20:30.284Z,11.25
2018-08-17T23:23:00.582Z,11.38
2018-08-17T23:25:29.781Z,9.53
2018-08-17T23:27:58.773Z,10.13
2018-08-17T23:30:27.666Z,10.78
2018-08-17T23:32:56.680Z,11.73
2018-08-17T23:35:25.402Z,11.03
2018-08-17T23:37:54.388Z,12.05
2018-08-17T23:40:23.627Z,11.10
2018-08-17T23:42:52.617Z,12.23
2018-08-17T23:45:22.284Z,11.35
2018-08-17T23:47:51.129Z,10.95
2018-08-17T23:50:20.029Z,11.73
2018-08-17T23:52:48.869Z,11.85
2018-08-17T23:55:18.776Z,11.75
2018-08-17T23:57:48.509Z,11.35
